PWSweather.com
Personal Weather Stations
Station Observations
ARECO747
Argentina , San Antonio ArecoAR Bs.As

Argentina San Antonio ArecoAR Bs.As

Lat: -34.24447275818, Lon: -59.47654187679

Elevation: 102

Station Type: InformaciĆ³n generada con nuevo Microchip Ethernet conectado a estaciĆ³n WH1081

http://www.meteostar.com.ar

High Low Average
Temperature 96.4°F35.8°C 71.2°F21.8°C 82.2°F27.9°C
Dew Point 69.8°F21.0°C 63.3°F17.4°C 66.2°F19.0°C
Winds 6.9 mph 11.1 kmh Calm Calm 2.0 mph S3.2 kmh S
Wind Gusts 11.4 mph18.3 kmh -- 5.0 mph8.0 kmh
Humidity 77% 40% 60%
Pressure 29.86 in1011.2 mb 29.76 in1007.8 mb -
Precipitation 0.00 in0.0 mm - -
Hour Temp Dew Point Humidity Winds Wind Gusts Pressure Precip Precip Rate Daily Precip Total
12:03 AM 75.4°F24.1°C 64.9°F18.3°C 70% 2.2 mph NE3.5 kmh NE 4.5 mph7.2 kmh 29.80 in1009.1 mb 0.00 in0.0 mm 0.00 in0.0 mm 0.00 in0.0 mm
12:08 AM 75.2°F24.0°C 64.8°F18.2°C 70% 2.2 mph NE3.5 kmh NE 4.5 mph7.2 kmh 29.80 in1009.1 mb 0.00 in0.0 mm 0.00 in0.0 mm 0.00 in0.0 mm
12:13 AM 75.0°F23.9°C 64.9°F18.3°C 71% 2.2 mph NE3.5 kmh NE 4.5 mph7.2 kmh 29.79 in1008.8 mb 0.00 in0.0 mm 0.00 in0.0 mm 0.00 in0.0 mm
12:18 AM 75.0°F23.9°C 64.9°F18.3°C 71% Calm Calm 3.8 mph6.1 kmh 29.80 in1009.1 mb 0.00 in0.0 mm 0.00 in0.0 mm 0.00 in0.0 mm
12:24 AM 75.0°F23.9°C 64.9°F18.3°C 71% 1.6 mph 2.6 kmh 2.2 mph3.5 kmh 29.80 in1009.1 mb 0.00 in0.0 mm 0.00 in0.0 mm 0.00 in0.0 mm
12:29 AM 74.7°F23.7°C 64.6°F18.1°C 71% 1.6 mph NNE2.6 kmh NNE 2.2 mph3.5 kmh 29.80 in1009.1 mb 0.00 in0.0 mm 0.00 in0.0 mm 0.00 in0.0 mm
12:34 AM 74.7°F23.7°C 64.6°F18.1°C 71% 2.2 mph NE3.5 kmh NE 3.1 mph5.0 kmh 29.80 in1009.1 mb 0.00 in0.0 mm 0.00 in0.0 mm 0.00 in0.0 mm
12:39 AM 74.5°F23.6°C 64.4°F18.0°C 71% 2.2 mph NNE3.5 kmh NNE 3.8 mph6.1 kmh 29.80 in1009.1 mb 0.00 in0.0 mm 0.00 in0.0 mm 0.00 in0.0 mm
12:44 AM 74.5°F23.6°C 64.9°F18.3°C 72% 2.2 mph ENE3.5 kmh ENE 3.8 mph6.1 kmh 29.80 in1009.1 mb 0.00 in0.0 mm 0.00 in0.0 mm 0.00 in0.0 mm
12:49 AM 74.5°F23.6°C 64.9°F18.3°C 72% 1.6 mph NNE2.6 kmh NNE 3.8 mph6.1 kmh 29.80 in1009.1 mb 0.00 in0.0 mm 0.00 in0.0 mm 0.00 in0.0 mm
12:55 AM 74.5°F23.6°C 64.9°F18.3°C 72% 2.2 mph 3.5 kmh 3.1 mph5.0 kmh 29.79 in1008.8 mb 0.00 in0.0 mm 0.00 in0.0 mm 0.00 in0.0 mm
01:00 AM 74.3°F23.5°C 64.8°F18.2°C 72% 1.6 mph 2.6 kmh 3.1 mph5.0 kmh 29.79 in1008.8 mb 0.00 in0.0 mm 0.00 in0.0 mm 0.00 in0.0 mm
01:05 AM 74.1°F23.4°C 64.6°F18.1°C 72% Calm Calm 3.1 mph5.0 kmh 29.79 in1008.8 mb 0.00 in0.0 mm 0.00 in0.0 mm 0.00 in0.0 mm
01:10 AM 74.1°F23.4°C 64.6°F18.1°C 72% Calm Calm 3.1 mph5.0 kmh 29.79 in1008.8 mb 0.00 in0.0 mm 0.00 in0.0 mm 0.00 in0.0 mm
01:15 AM 73.9°F23.3°C 64.4°F18.0°C 72% Calm Calm 1.6 mph2.6 kmh 29.79 in1008.8 mb 0.00 in0.0 mm 0.00 in0.0 mm 0.00 in0.0 mm
01:20 AM 73.9°F23.3°C 64.4°F18.0°C 72% Calm Calm 0.7 mph1.1 kmh 29.79 in1008.8 mb 0.00 in0.0 mm 0.00 in0.0 mm 0.00 in0.0 mm
01:26 AM 73.9°F23.3°C 64.4°F18.0°C 72% Calm Calm 0.7 mph1.1 kmh 29.79 in1008.8 mb 0.00 in0.0 mm 0.00 in0.0 mm 0.00 in0.0 mm
01:31 AM 74.1°F23.4°C 64.6°F18.1°C 72% 0.7 mph NE1.1 kmh NE 2.2 mph3.5 kmh 29.78 in1008.5 mb 0.00 in0.0 mm 0.00 in0.0 mm 0.00 in0.0 mm
01:36 AM 74.1°F23.4°C 64.6°F18.1°C 72% 1.6 mph 2.6 kmh 2.2 mph3.5 kmh 29.78 in1008.5 mb 0.00 in0.0 mm 0.00 in0.0 mm 0.00 in0.0 mm
01:41 AM 73.9°F23.3°C 64.4°F18.0°C 72% 1.6 mph 2.6 kmh 3.1 mph5.0 kmh 29.78 in1008.5 mb 0.00 in0.0 mm 0.00 in0.0 mm 0.00 in0.0 mm
01:46 AM 73.8°F23.2°C 64.2°F17.9°C 72% Calm Calm 3.1 mph5.0 kmh 29.78 in1008.5 mb 0.00 in0.0 mm 0.00 in0.0 mm 0.00 in0.0 mm
01:51 AM 73.6°F23.1°C 64.4°F18.0°C 73% Calm Calm 0.7 mph1.1 kmh 29.78 in1008.5 mb 0.00 in0.0 mm 0.00 in0.0 mm 0.00 in0.0 mm
01:57 AM 73.4°F23.0°C 64.2°F17.9°C 73% 1.6 mph NW2.6 kmh NW 2.2 mph3.5 kmh 29.78 in1008.5 mb 0.00 in0.0 mm 0.00 in0.0 mm 0.00 in0.0 mm
02:02 AM 73.6°F23.1°C 64.4°F18.0°C 73% 0.7 mph 1.1 kmh -- 29.78 in1008.5 mb 0.00 in0.0 mm 0.00 in0.0 mm 0.00 in0.0 mm
02:05 AM 73.4°F23.0°C 64.2°F17.9°C 73% 0.7 mph 1.1 kmh -- 29.78 in1008.5 mb 0.00 in0.0 mm 0.00 in0.0 mm 0.00 in0.0 mm
02:10 AM 73.2°F22.9°C 64.4°F18.0°C 74% Calm Calm 0.7 mph1.1 kmh 29.78 in1008.5 mb 0.00 in0.0 mm 0.00 in0.0 mm 0.00 in0.0 mm
02:15 AM 73.2°F22.9°C 64.4°F18.0°C 74% 1.6 mph 2.6 kmh 2.2 mph3.5 kmh 29.78 in1008.5 mb 0.00 in0.0 mm 0.00 in0.0 mm 0.00 in0.0 mm
02:20 AM 73.2°F22.9°C 64.4°F18.0°C 74% 0.7 mph NE1.1 kmh NE 3.1 mph5.0 kmh 29.78 in1008.5 mb 0.00 in0.0 mm 0.00 in0.0 mm 0.00 in0.0 mm
02:25 AM 73.2°F22.9°C 64.4°F18.0°C 74% Calm Calm 1.6 mph2.6 kmh 29.78 in1008.5 mb 0.00 in0.0 mm 0.00 in0.0 mm 0.00 in0.0 mm
02:30 AM 73.0°F22.8°C 64.6°F18.1°C 75% Calm Calm 1.6 mph2.6 kmh 29.78 in1008.5 mb 0.00 in0.0 mm 0.00 in0.0 mm 0.00 in0.0 mm
02:36 AM 73.2°F22.9°C 64.8°F18.2°C 75% Calm Calm 2.2 mph3.5 kmh 29.78 in1008.5 mb 0.00 in0.0 mm 0.00 in0.0 mm 0.00 in0.0 mm
02:41 AM 73.2°F22.9°C 64.8°F18.2°C 75% Calm Calm 0.7 mph1.1 kmh 29.77 in1008.1 mb 0.00 in0.0 mm 0.00 in0.0 mm 0.00 in0.0 mm
02:46 AM 73.0°F22.8°C 64.6°F18.1°C 75% Calm Calm -- 29.77 in1008.1 mb 0.00 in0.0 mm 0.00 in0.0 mm 0.00 in0.0 mm
02:51 AM 72.9°F22.7°C 64.4°F18.0°C 75% 0.7 mph 1.1 kmh 1.6 mph2.6 kmh 29.76 in1007.8 mb 0.00 in0.0 mm 0.00 in0.0 mm 0.00 in0.0 mm
02:56 AM 72.9°F22.7°C 64.4°F18.0°C 75% Calm Calm 1.6 mph2.6 kmh 29.76 in1007.8 mb 0.00 in0.0 mm 0.00 in0.0 mm 0.00 in0.0 mm
03:01 AM 72.7°F22.6°C 64.2°F17.9°C 75% Calm Calm 1.6 mph2.6 kmh 29.76 in1007.8 mb 0.00 in0.0 mm 0.00 in0.0 mm 0.00 in0.0 mm
03:07 AM 72.7°F22.6°C 64.2°F17.9°C 75% Calm Calm 0.7 mph1.1 kmh 29.76 in1007.8 mb 0.00 in0.0 mm 0.00 in0.0 mm 0.00 in0.0 mm
03:12 AM 72.5°F22.5°C 64.0°F17.8°C 75% Calm Calm -- 29.76 in1007.8 mb 0.00 in0.0 mm 0.00 in0.0 mm 0.00 in0.0 mm
03:17 AM 72.7°F22.6°C 64.2°F17.9°C 75% Calm Calm 0.7 mph1.1 kmh 29.77 in1008.1 mb 0.00 in0.0 mm 0.00 in0.0 mm 0.00 in0.0 mm
03:22 AM 72.7°F22.6°C 64.2°F17.9°C 75% Calm Calm 0.7 mph1.1 kmh 29.77 in1008.1 mb 0.00 in0.0 mm 0.00 in0.0 mm 0.00 in0.0 mm
03:27 AM 72.9°F22.7°C 64.4°F18.0°C 75% Calm Calm 1.6 mph2.6 kmh 29.76 in1007.8 mb 0.00 in0.0 mm 0.00 in0.0 mm 0.00 in0.0 mm
03:32 AM 72.7°F22.6°C 64.2°F17.9°C 75% Calm Calm 1.6 mph2.6 kmh 29.76 in1007.8 mb 0.00 in0.0 mm 0.00 in0.0 mm 0.00 in0.0 mm
03:38 AM 72.7°F22.6°C 64.2°F17.9°C 75% Calm Calm 0.7 mph1.1 kmh 29.76 in1007.8 mb 0.00 in0.0 mm 0.00 in0.0 mm 0.00 in0.0 mm
03:43 AM 72.7°F22.6°C 64.2°F17.9°C 75% Calm Calm -- 29.76 in1007.8 mb 0.00 in0.0 mm 0.00 in0.0 mm 0.00 in0.0 mm
03:48 AM 72.5°F22.5°C 64.0°F17.8°C 75% Calm Calm 1.6 mph2.6 kmh 29.76 in1007.8 mb 0.00 in0.0 mm 0.00 in0.0 mm 0.00 in0.0 mm
03:53 AM 72.3°F22.4°C 63.9°F17.7°C 75% Calm Calm -- 29.76 in1007.8 mb 0.00 in0.0 mm 0.00 in0.0 mm 0.00 in0.0 mm
03:58 AM 72.3°F22.4°C 63.9°F17.7°C 75% Calm Calm -- 29.76 in1007.8 mb 0.00 in0.0 mm 0.00 in0.0 mm 0.00 in0.0 mm
04:03 AM 72.5°F22.5°C 64.0°F17.8°C 75% 0.7 mph S1.1 kmh S 2.2 mph3.5 kmh 29.77 in1008.1 mb 0.00 in0.0 mm 0.00 in0.0 mm 0.00 in0.0 mm
04:09 AM 72.7°F22.6°C 64.2°F17.9°C 75% Calm Calm 2.2 mph3.5 kmh 29.77 in1008.1 mb 0.00 in0.0 mm 0.00 in0.0 mm 0.00 in0.0 mm
04:14 AM 72.7°F22.6°C 64.8°F18.2°C 76% Calm Calm 1.6 mph2.6 kmh 29.76 in1007.8 mb 0.00 in0.0 mm 0.00 in0.0 mm 0.00 in0.0 mm
04:19 AM 72.5°F22.5°C 64.6°F18.1°C 76% Calm Calm -- 29.76 in1007.8 mb 0.00 in0.0 mm 0.00 in0.0 mm 0.00 in0.0 mm
04:24 AM 72.5°F22.5°C 64.6°F18.1°C 76% Calm Calm 1.6 mph2.6 kmh 29.76 in1007.8 mb 0.00 in0.0 mm 0.00 in0.0 mm 0.00 in0.0 mm
04:29 AM 72.3°F22.4°C 64.4°F18.0°C 76% Calm Calm 0.7 mph1.1 kmh 29.76 in1007.8 mb 0.00 in0.0 mm 0.00 in0.0 mm 0.00 in0.0 mm
04:34 AM 72.1°F22.3°C 64.2°F17.9°C 76% Calm Calm -- 29.76 in1007.8 mb 0.00 in0.0 mm 0.00 in0.0 mm 0.00 in0.0 mm
04:40 AM 72.1°F22.3°C 64.2°F17.9°C 76% Calm Calm -- 29.77 in1008.1 mb 0.00 in0.0 mm 0.00 in0.0 mm 0.00 in0.0 mm
04:45 AM 72.1°F22.3°C 64.2°F17.9°C 76% Calm Calm 0.7 mph1.1 kmh 29.76 in1007.8 mb 0.00 in0.0 mm 0.00 in0.0 mm 0.00 in0.0 mm
04:50 AM 72.1°F22.3°C 64.2°F17.9°C 76% Calm Calm 0.7 mph1.1 kmh 29.76 in1007.8 mb 0.00 in0.0 mm 0.00 in0.0 mm 0.00 in0.0 mm
04:55 AM 72.1°F22.3°C 64.2°F17.9°C 76% 0.7 mph SW1.1 kmh SW 1.6 mph2.6 kmh 29.76 in1007.8 mb 0.00 in0.0 mm 0.00 in0.0 mm 0.00 in0.0 mm
05:00 AM 72.1°F22.3°C 64.2°F17.9°C 76% 0.7 mph S1.1 kmh S 2.2 mph3.5 kmh 29.77 in1008.1 mb 0.00 in0.0 mm 0.00 in0.0 mm 0.00 in0.0 mm
05:05 AM 72.1°F22.3°C 64.2°F17.9°C 76% 0.7 mph S1.1 kmh S 2.2 mph3.5 kmh 29.77 in1008.1 mb 0.00 in0.0 mm 0.00 in0.0 mm 0.00 in0.0 mm
05:11 AM 72.1°F22.3°C 64.2°F17.9°C 76% Calm Calm -- 29.77 in1008.1 mb 0.00 in0.0 mm 0.00 in0.0 mm 0.00 in0.0 mm
05:16 AM 72.0°F22.2°C 64.0°F17.8°C 76% Calm Calm -- 29.78 in1008.5 mb 0.00 in0.0 mm 0.00 in0.0 mm 0.00 in0.0 mm
05:21 AM 71.8°F22.1°C 63.9°F17.7°C 76% Calm Calm -- 29.77 in1008.1 mb 0.00 in0.0 mm 0.00 in0.0 mm 0.00 in0.0 mm
05:26 AM 71.8°F22.1°C 63.9°F17.7°C 76% 0.7 mph S1.1 kmh S 1.6 mph2.6 kmh 29.78 in1008.5 mb 0.00 in0.0 mm 0.00 in0.0 mm 0.00 in0.0 mm
05:31 AM 72.0°F22.2°C 64.0°F17.8°C 76% Calm Calm 1.6 mph2.6 kmh 29.78 in1008.5 mb 0.00 in0.0 mm 0.00 in0.0 mm 0.00 in0.0 mm
05:36 AM 71.8°F22.1°C 63.9°F17.7°C 76% Calm Calm 0.7 mph1.1 kmh 29.77 in1008.1 mb 0.00 in0.0 mm 0.00 in0.0 mm 0.00 in0.0 mm
05:42 AM 71.8°F22.1°C 63.9°F17.7°C 76% 0.7 mph S1.1 kmh S 1.6 mph2.6 kmh 29.78 in1008.5 mb 0.00 in0.0 mm 0.00 in0.0 mm 0.00 in0.0 mm
05:47 AM 71.8°F22.1°C 63.9°F17.7°C 76% 1.6 mph SW2.6 kmh SW 2.2 mph3.5 kmh 29.78 in1008.5 mb 0.00 in0.0 mm 0.00 in0.0 mm 0.00 in0.0 mm
05:52 AM 71.6°F22.0°C 63.7°F17.6°C 76% Calm Calm 2.2 mph3.5 kmh 29.78 in1008.5 mb 0.00 in0.0 mm 0.00 in0.0 mm 0.00 in0.0 mm
05:57 AM 71.4°F21.9°C 63.5°F17.5°C 76% Calm Calm 0.7 mph1.1 kmh 29.78 in1008.5 mb 0.00 in0.0 mm 0.00 in0.0 mm 0.00 in0.0 mm
06:02 AM 71.4°F21.9°C 63.5°F17.5°C 76% Calm Calm -- 29.78 in1008.5 mb 0.00 in0.0 mm 0.00 in0.0 mm 0.00 in0.0 mm
06:07 AM 71.4°F21.9°C 63.5°F17.5°C 76% Calm Calm -- 29.77 in1008.1 mb 0.00 in0.0 mm 0.00 in0.0 mm 0.00 in0.0 mm
06:13 AM 71.4°F21.9°C 63.5°F17.5°C 76% Calm Calm 0.7 mph1.1 kmh 29.78 in1008.5 mb 0.00 in0.0 mm 0.00 in0.0 mm 0.00 in0.0 mm
06:18 AM 71.4°F21.9°C 63.5°F17.5°C 76% Calm Calm 1.6 mph2.6 kmh 29.78 in1008.5 mb 0.00 in0.0 mm 0.00 in0.0 mm 0.00 in0.0 mm
06:23 AM 71.2°F21.8°C 63.3°F17.4°C 76% Calm Calm -- 29.78 in1008.5 mb 0.00 in0.0 mm 0.00 in0.0 mm 0.00 in0.0 mm
06:28 AM 71.4°F21.9°C 63.9°F17.7°C 77% Calm Calm 1.6 mph2.6 kmh 29.78 in1008.5 mb 0.00 in0.0 mm 0.00 in0.0 mm 0.00 in0.0 mm
06:33 AM 71.4°F21.9°C 63.9°F17.7°C 77% Calm Calm 1.6 mph2.6 kmh 29.79 in1008.8 mb 0.00 in0.0 mm 0.00 in0.0 mm 0.00 in0.0 mm
06:39 AM 71.4°F21.9°C 63.9°F17.7°C 77% Calm Calm -- 29.79 in1008.8 mb 0.00 in0.0 mm 0.00 in0.0 mm 0.00 in0.0 mm
06:44 AM 71.6°F22.0°C 64.0°F17.8°C 77% 0.7 mph NW1.1 kmh NW 1.6 mph2.6 kmh 29.79 in1008.8 mb 0.00 in0.0 mm 0.00 in0.0 mm 0.00 in0.0 mm
06:49 AM 71.6°F22.0°C 64.0°F17.8°C 77% Calm Calm 1.6 mph2.6 kmh 29.79 in1008.8 mb 0.00 in0.0 mm 0.00 in0.0 mm 0.00 in0.0 mm
06:54 AM 71.6°F22.0°C 64.0°F17.8°C 77% Calm Calm 1.6 mph2.6 kmh 29.79 in1008.8 mb 0.00 in0.0 mm 0.00 in0.0 mm 0.00 in0.0 mm
06:59 AM 71.8°F22.1°C 64.2°F17.9°C 77% Calm Calm 0.7 mph1.1 kmh 29.80 in1009.1 mb 0.00 in0.0 mm 0.00 in0.0 mm 0.00 in0.0 mm
07:04 AM 71.8°F22.1°C 64.2°F17.9°C 77% 0.7 mph 1.1 kmh 1.6 mph2.6 kmh 29.79 in1008.8 mb 0.00 in0.0 mm 0.00 in0.0 mm 0.00 in0.0 mm
07:10 AM 72.3°F22.4°C 64.8°F18.2°C 77% 0.7 mph 1.1 kmh 2.2 mph3.5 kmh 29.80 in1009.1 mb 0.00 in0.0 mm 0.00 in0.0 mm 0.00 in0.0 mm
07:15 AM 73.9°F23.3°C 65.8°F18.8°C 76% 0.7 mph NW1.1 kmh NW 1.6 mph2.6 kmh 29.80 in1009.1 mb 0.00 in0.0 mm 0.00 in0.0 mm 0.00 in0.0 mm
07:20 AM 75.2°F24.0°C 66.4°F19.1°C 74% 0.7 mph NW1.1 kmh NW 2.2 mph3.5 kmh 29.80 in1009.1 mb 0.00 in0.0 mm 0.00 in0.0 mm 0.00 in0.0 mm
07:25 AM 75.6°F24.2°C 66.7°F19.3°C 74% Calm Calm 1.6 mph2.6 kmh 29.80 in1009.1 mb 0.00 in0.0 mm 0.00 in0.0 mm 0.00 in0.0 mm
07:30 AM 76.6°F24.8°C 67.3°F19.6°C 73% 0.7 mph W1.1 kmh W 1.6 mph2.6 kmh 29.80 in1009.1 mb 0.00 in0.0 mm 0.00 in0.0 mm 0.00 in0.0 mm
07:35 AM 78.6°F25.9°C 68.4°F20.2°C 71% Calm Calm 1.6 mph2.6 kmh 29.80 in1009.1 mb 0.00 in0.0 mm 0.00 in0.0 mm 0.00 in0.0 mm
07:41 AM 80.4°F26.9°C 69.3°F20.7°C 69% 0.7 mph S1.1 kmh S 1.6 mph2.6 kmh 29.80 in1009.1 mb 0.00 in0.0 mm 0.00 in0.0 mm 0.00 in0.0 mm
07:46 AM 82.0°F27.8°C 69.1°F20.6°C 65% 0.7 mph SW1.1 kmh SW 2.2 mph3.5 kmh 29.80 in1009.1 mb 0.00 in0.0 mm 0.00 in0.0 mm 0.00 in0.0 mm
07:51 AM 82.0°F27.8°C 67.6°F19.8°C 62% 1.6 mph SW2.6 kmh SW 3.1 mph5.0 kmh 29.80 in1009.1 mb 0.00 in0.0 mm 0.00 in0.0 mm 0.00 in0.0 mm
07:56 AM 80.8°F27.1°C 66.0°F18.9°C 61% 3.8 mph SW6.1 kmh SW 5.4 mph8.7 kmh 29.80 in1009.1 mb 0.00 in0.0 mm 0.00 in0.0 mm 0.00 in0.0 mm
08:01 AM 80.2°F26.8°C 66.0°F18.9°C 62% 1.6 mph SW2.6 kmh SW 5.4 mph8.7 kmh 29.80 in1009.1 mb 0.00 in0.0 mm 0.00 in0.0 mm 0.00 in0.0 mm
08:06 AM 80.2°F26.8°C 65.5°F18.6°C 61% 2.2 mph SW3.5 kmh SW 5.4 mph8.7 kmh 29.80 in1009.1 mb 0.00 in0.0 mm 0.00 in0.0 mm 0.00 in0.0 mm
08:12 AM 80.2°F26.8°C 65.5°F18.6°C 61% 3.1 mph SSW5.0 kmh SSW 4.5 mph7.2 kmh 29.81 in1009.5 mb 0.00 in0.0 mm 0.00 in0.0 mm 0.00 in0.0 mm
08:17 AM 80.8°F27.1°C 66.6°F19.2°C 62% 1.6 mph SW2.6 kmh SW 4.5 mph7.2 kmh 29.80 in1009.1 mb 0.00 in0.0 mm 0.00 in0.0 mm 0.00 in0.0 mm
08:22 AM 82.0°F27.8°C 67.3°F19.6°C 61% 3.1 mph W5.0 kmh W 4.5 mph7.2 kmh 29.81 in1009.5 mb 0.00 in0.0 mm 0.00 in0.0 mm 0.00 in0.0 mm
08:27 AM 81.7°F27.6°C 66.9°F19.4°C 61% 3.1 mph 5.0 kmh 6.0 mph9.7 kmh 29.81 in1009.5 mb 0.00 in0.0 mm 0.00 in0.0 mm 0.00 in0.0 mm
08:32 AM 81.3°F27.4°C 67.1°F19.5°C 62% 3.1 mph SW5.0 kmh SW 6.0 mph9.7 kmh 29.81 in1009.5 mb 0.00 in0.0 mm 0.00 in0.0 mm 0.00 in0.0 mm
08:37 AM 81.0°F27.2°C 66.7°F19.3°C 62% 3.1 mph SW5.0 kmh SW 6.9 mph11.1 kmh 29.81 in1009.5 mb 0.00 in0.0 mm 0.00 in0.0 mm 0.00 in0.0 mm
08:43 AM 80.8°F27.1°C 66.6°F19.2°C 62% 5.4 mph SW8.7 kmh SW 7.6 mph12.2 kmh 29.81 in1009.5 mb 0.00 in0.0 mm 0.00 in0.0 mm 0.00 in0.0 mm
08:48 AM 81.0°F27.2°C 66.7°F19.3°C 62% 3.8 mph WSW6.1 kmh WSW 8.3 mph13.4 kmh 29.81 in1009.5 mb 0.00 in0.0 mm 0.00 in0.0 mm 0.00 in0.0 mm
08:53 AM 82.2°F27.9°C 67.5°F19.7°C 61% 2.2 mph W3.5 kmh W 6.9 mph11.1 kmh 29.81 in1009.5 mb 0.00 in0.0 mm 0.00 in0.0 mm 0.00 in0.0 mm
08:58 AM 82.4°F28.0°C 66.6°F19.2°C 59% 2.2 mph SW3.5 kmh SW 6.9 mph11.1 kmh 29.81 in1009.5 mb 0.00 in0.0 mm 0.00 in0.0 mm 0.00 in0.0 mm
09:03 AM 83.8°F28.8°C 67.5°F19.7°C 58% 3.1 mph SW5.0 kmh SW 6.9 mph11.1 kmh 29.81 in1009.5 mb 0.00 in0.0 mm 0.00 in0.0 mm 0.00 in0.0 mm
09:08 AM 84.2°F29.0°C 66.2°F19.0°C 55% 4.5 mph SW7.2 kmh SW 7.6 mph12.2 kmh 29.82 in1009.8 mb 0.00 in0.0 mm 0.00 in0.0 mm 0.00 in0.0 mm
09:14 AM 83.8°F28.8°C 66.9°F19.4°C 57% 5.4 mph SW8.7 kmh SW 6.9 mph11.1 kmh 29.82 in1009.8 mb 0.00 in0.0 mm 0.00 in0.0 mm 0.00 in0.0 mm
09:19 AM 84.2°F29.0°C 66.7°F19.3°C 56% 1.6 mph SE2.6 kmh SE 7.6 mph12.2 kmh 29.81 in1009.5 mb 0.00 in0.0 mm 0.00 in0.0 mm 0.00 in0.0 mm
09:24 AM 84.7°F29.3°C 66.7°F19.3°C 55% 4.5 mph SW7.2 kmh SW 6.9 mph11.1 kmh 29.82 in1009.8 mb 0.00 in0.0 mm 0.00 in0.0 mm 0.00 in0.0 mm
09:29 AM 84.9°F29.4°C 66.9°F19.4°C 55% 3.1 mph W5.0 kmh W 8.3 mph13.4 kmh 29.82 in1009.8 mb 0.00 in0.0 mm 0.00 in0.0 mm 0.00 in0.0 mm
09:34 AM 85.5°F29.7°C 66.9°F19.4°C 54% 4.5 mph W7.2 kmh W 6.9 mph11.1 kmh 29.81 in1009.5 mb 0.00 in0.0 mm 0.00 in0.0 mm 0.00 in0.0 mm
09:39 AM 85.1°F29.5°C 66.6°F19.2°C 54% 3.8 mph W6.1 kmh W 8.3 mph13.4 kmh 29.82 in1009.8 mb 0.00 in0.0 mm 0.00 in0.0 mm 0.00 in0.0 mm
09:45 AM 84.9°F29.4°C 66.4°F19.1°C 54% 3.8 mph SW6.1 kmh SW 8.3 mph13.4 kmh 29.81 in1009.5 mb 0.00 in0.0 mm 0.00 in0.0 mm 0.00 in0.0 mm
09:50 AM 85.5°F29.7°C 66.9°F19.4°C 54% 3.1 mph SW5.0 kmh SW 6.0 mph9.7 kmh 29.82 in1009.8 mb 0.00 in0.0 mm 0.00 in0.0 mm 0.00 in0.0 mm
09:55 AM 85.5°F29.7°C 66.9°F19.4°C 54% 5.4 mph SW8.7 kmh SW 8.3 mph13.4 kmh 29.81 in1009.5 mb 0.00 in0.0 mm 0.00 in0.0 mm 0.00 in0.0 mm
10:00 AM 85.5°F29.7°C 66.9°F19.4°C 54% 0.7 mph NW1.1 kmh NW 6.9 mph11.1 kmh 29.82 in1009.8 mb 0.00 in0.0 mm 0.00 in0.0 mm 0.00 in0.0 mm
10:05 AM 86.4°F30.2°C 67.3°F19.6°C 53% 3.1 mph SW5.0 kmh SW 6.0 mph9.7 kmh 29.82 in1009.8 mb 0.00 in0.0 mm 0.00 in0.0 mm 0.00 in0.0 mm
10:10 AM 87.1°F30.6°C 66.7°F19.3°C 51% 4.5 mph SW7.2 kmh SW 6.9 mph11.1 kmh 29.82 in1009.8 mb 0.00 in0.0 mm 0.00 in0.0 mm 0.00 in0.0 mm
10:16 AM 86.5°F30.3°C 66.2°F19.0°C 51% 2.2 mph 3.5 kmh 7.6 mph12.2 kmh 29.82 in1009.8 mb 0.00 in0.0 mm 0.00 in0.0 mm 0.00 in0.0 mm
10:21 AM 87.6°F30.9°C 66.7°F19.3°C 50% 4.5 mph SW7.2 kmh SW 5.4 mph8.7 kmh 29.82 in1009.8 mb 0.00 in0.0 mm 0.00 in0.0 mm 0.00 in0.0 mm
10:26 AM 88.5°F31.4°C 66.9°F19.4°C 49% 4.5 mph SW7.2 kmh SW 7.6 mph12.2 kmh 29.82 in1009.8 mb 0.00 in0.0 mm 0.00 in0.0 mm 0.00 in0.0 mm
10:31 AM 87.8°F31.0°C 66.2°F19.0°C 49% 3.8 mph W6.1 kmh W 6.9 mph11.1 kmh 29.82 in1009.8 mb 0.00 in0.0 mm 0.00 in0.0 mm 0.00 in0.0 mm
10:36 AM 87.3°F30.7°C 66.9°F19.4°C 51% 3.1 mph SW5.0 kmh SW 6.9 mph11.1 kmh 29.83 in1010.2 mb 0.00 in0.0 mm 0.00 in0.0 mm 0.00 in0.0 mm
10:41 AM 88.0°F31.1°C 66.9°F19.4°C 50% 2.2 mph SW3.5 kmh SW 5.4 mph8.7 kmh 29.82 in1009.8 mb 0.00 in0.0 mm 0.00 in0.0 mm 0.00 in0.0 mm
10:47 AM 88.0°F31.1°C 66.4°F19.1°C 49% 3.1 mph W5.0 kmh W 7.6 mph12.2 kmh 29.83 in1010.2 mb 0.00 in0.0 mm 0.00 in0.0 mm 0.00 in0.0 mm
10:52 AM 87.4°F30.8°C 65.8°F18.8°C 49% 3.8 mph SSW6.1 kmh SSW 7.6 mph12.2 kmh 29.83 in1010.2 mb 0.00 in0.0 mm 0.00 in0.0 mm 0.00 in0.0 mm
10:57 AM 87.8°F31.0°C 65.7°F18.7°C 48% 3.8 mph WSW6.1 kmh WSW 9.8 mph15.8 kmh 29.83 in1010.2 mb 0.00 in0.0 mm 0.00 in0.0 mm 0.00 in0.0 mm
11:02 AM 87.8°F31.0°C 65.7°F18.7°C 48% 3.1 mph SW5.0 kmh SW 6.9 mph11.1 kmh 29.83 in1010.2 mb 0.00 in0.0 mm 0.00 in0.0 mm 0.00 in0.0 mm
11:07 AM 88.0°F31.1°C 65.8°F18.8°C 48% 4.5 mph WNW7.2 kmh WNW 7.6 mph12.2 kmh 29.83 in1010.2 mb 0.00 in0.0 mm 0.00 in0.0 mm 0.00 in0.0 mm
11:12 AM 87.8°F31.0°C 65.7°F18.7°C 48% 2.2 mph W3.5 kmh W 7.6 mph12.2 kmh 29.83 in1010.2 mb 0.00 in0.0 mm 0.00 in0.0 mm 0.00 in0.0 mm
11:18 AM 88.5°F31.4°C 66.9°F19.4°C 49% 2.2 mph WSW3.5 kmh WSW 5.4 mph8.7 kmh 29.83 in1010.2 mb 0.00 in0.0 mm 0.00 in0.0 mm 0.00 in0.0 mm
11:23 AM 88.3°F31.3°C 66.2°F19.0°C 48% 4.5 mph S7.2 kmh S 8.3 mph13.4 kmh 29.83 in1010.2 mb 0.00 in0.0 mm 0.00 in0.0 mm 0.00 in0.0 mm
11:28 AM 88.0°F31.1°C 66.4°F19.1°C 49% 3.8 mph W6.1 kmh W 7.6 mph12.2 kmh 29.82 in1009.8 mb 0.00 in0.0 mm 0.00 in0.0 mm 0.00 in0.0 mm
11:33 AM 88.9°F31.6°C 66.6°F19.2°C 48% 3.1 mph SSW5.0 kmh SSW 6.9 mph11.1 kmh 29.82 in1009.8 mb 0.00 in0.0 mm 0.00 in0.0 mm 0.00 in0.0 mm
11:38 AM 90.0°F32.2°C 66.4°F19.1°C 46% 3.1 mph SW5.0 kmh SW 8.3 mph13.4 kmh 29.82 in1009.8 mb 0.00 in0.0 mm 0.00 in0.0 mm 0.00 in0.0 mm
11:43 AM 89.8°F32.1°C 66.2°F19.0°C 46% 2.2 mph SE3.5 kmh SE 6.9 mph11.1 kmh 29.82 in1009.8 mb 0.00 in0.0 mm 0.00 in0.0 mm 0.00 in0.0 mm
11:49 AM 89.8°F32.1°C 66.2°F19.0°C 46% 3.1 mph W5.0 kmh W 6.0 mph9.7 kmh 29.82 in1009.8 mb 0.00 in0.0 mm 0.00 in0.0 mm 0.00 in0.0 mm
11:54 AM 88.9°F31.6°C 65.5°F18.6°C 46% 3.1 mph S5.0 kmh S 8.3 mph13.4 kmh 29.82 in1009.8 mb 0.00 in0.0 mm 0.00 in0.0 mm 0.00 in0.0 mm
11:59 AM 89.8°F32.1°C 66.2°F19.0°C 46% 3.1 mph SW5.0 kmh SW 9.2 mph14.8 kmh 29.82 in1009.8 mb 0.00 in0.0 mm 0.00 in0.0 mm 0.00 in0.0 mm
12:04 PM 90.1°F32.3°C 66.6°F19.2°C 46% 4.5 mph W7.2 kmh W 7.6 mph12.2 kmh 29.82 in1009.8 mb 0.00 in0.0 mm 0.00 in0.0 mm 0.00 in0.0 mm
12:09 PM 89.8°F32.1°C 66.2°F19.0°C 46% 2.2 mph W3.5 kmh W 7.6 mph12.2 kmh 29.82 in1009.8 mb 0.00 in0.0 mm 0.00 in0.0 mm 0.00 in0.0 mm
12:15 PM 88.9°F31.6°C 66.6°F19.2°C 48% 3.1 mph W5.0 kmh W 7.6 mph12.2 kmh 29.82 in1009.8 mb 0.00 in0.0 mm 0.00 in0.0 mm 0.00 in0.0 mm
12:20 PM 88.9°F31.6°C 66.6°F19.2°C 48% 3.8 mph W6.1 kmh W 7.6 mph12.2 kmh 29.82 in1009.8 mb 0.00 in0.0 mm 0.00 in0.0 mm 0.00 in0.0 mm
12:25 PM 89.8°F32.1°C 67.5°F19.7°C 48% 3.8 mph SW6.1 kmh SW 6.0 mph9.7 kmh 29.82 in1009.8 mb 0.00 in0.0 mm 0.00 in0.0 mm 0.00 in0.0 mm
12:30 PM 88.9°F31.6°C 66.6°F19.2°C 48% 4.5 mph SW7.2 kmh SW 6.0 mph9.7 kmh 29.82 in1009.8 mb 0.00 in0.0 mm 0.00 in0.0 mm 0.00 in0.0 mm
12:35 PM 88.9°F31.6°C 66.6°F19.2°C 48% 2.2 mph SW3.5 kmh SW 6.0 mph9.7 kmh 29.82 in1009.8 mb 0.00 in0.0 mm 0.00 in0.0 mm 0.00 in0.0 mm
12:40 PM 90.3°F32.4°C 66.7°F19.3°C 46% 4.5 mph SW7.2 kmh SW 6.9 mph11.1 kmh 29.82 in1009.8 mb 0.00 in0.0 mm 0.00 in0.0 mm 0.00 in0.0 mm
12:46 PM 88.9°F31.6°C 66.6°F19.2°C 48% 2.2 mph NW3.5 kmh NW 6.9 mph11.1 kmh 29.82 in1009.8 mb 0.00 in0.0 mm 0.00 in0.0 mm 0.00 in0.0 mm
12:51 PM 91.2°F32.9°C 68.2°F20.1°C 47% 3.1 mph SW5.0 kmh SW 5.4 mph8.7 kmh 29.81 in1009.5 mb 0.00 in0.0 mm 0.00 in0.0 mm 0.00 in0.0 mm
12:56 PM 91.8°F33.2°C 67.5°F19.7°C 45% 3.8 mph SW6.1 kmh SW 5.4 mph8.7 kmh 29.81 in1009.5 mb 0.00 in0.0 mm 0.00 in0.0 mm 0.00 in0.0 mm
01:01 PM 91.2°F32.9°C 67.5°F19.7°C 46% 3.1 mph SW5.0 kmh SW 5.4 mph8.7 kmh 29.82 in1009.8 mb 0.00 in0.0 mm 0.00 in0.0 mm 0.00 in0.0 mm
01:06 PM 91.2°F32.9°C 67.5°F19.7°C 46% 3.1 mph NW5.0 kmh NW 9.2 mph14.8 kmh 29.82 in1009.8 mb 0.00 in0.0 mm 0.00 in0.0 mm 0.00 in0.0 mm
01:11 PM 91.2°F32.9°C 66.9°F19.4°C 45% 3.1 mph SW5.0 kmh SW 6.0 mph9.7 kmh 29.81 in1009.5 mb 0.00 in0.0 mm 0.00 in0.0 mm 0.00 in0.0 mm
01:17 PM 91.9°F33.3°C 66.2°F19.0°C 43% 0.7 mph S1.1 kmh S 5.4 mph8.7 kmh 29.82 in1009.8 mb 0.00 in0.0 mm 0.00 in0.0 mm 0.00 in0.0 mm
01:22 PM 93.2°F34.0°C 66.7°F19.3°C 42% 2.2 mph NW3.5 kmh NW 5.4 mph8.7 kmh 29.81 in1009.5 mb 0.00 in0.0 mm 0.00 in0.0 mm 0.00 in0.0 mm
01:27 PM 94.6°F34.8°C 68.0°F20.0°C 42% 1.6 mph SW2.6 kmh SW 3.1 mph5.0 kmh 29.82 in1009.8 mb 0.00 in0.0 mm 0.00 in0.0 mm 0.00 in0.0 mm
01:32 PM 94.8°F34.9°C 68.2°F20.1°C 42% 1.6 mph SE2.6 kmh SE 3.8 mph6.1 kmh 29.81 in1009.5 mb 0.00 in0.0 mm 0.00 in0.0 mm 0.00 in0.0 mm
01:37 PM 92.8°F33.8°C 67.6°F19.8°C 44% 2.2 mph W3.5 kmh W 6.0 mph9.7 kmh 29.82 in1009.8 mb 0.00 in0.0 mm 0.00 in0.0 mm 0.00 in0.0 mm
01:42 PM 92.5°F33.6°C 67.5°F19.7°C 44% 0.7 mph S1.1 kmh S 4.5 mph7.2 kmh 29.82 in1009.8 mb 0.00 in0.0 mm 0.00 in0.0 mm 0.00 in0.0 mm
01:48 PM 93.0°F33.9°C 67.8°F19.9°C 44% 0.7 mph E1.1 kmh E 3.1 mph5.0 kmh 29.81 in1009.5 mb 0.00 in0.0 mm 0.00 in0.0 mm 0.00 in0.0 mm
01:53 PM 94.1°F34.5°C 67.5°F19.7°C 42% 2.2 mph S3.5 kmh S 4.5 mph7.2 kmh 29.82 in1009.8 mb 0.00 in0.0 mm 0.00 in0.0 mm 0.00 in0.0 mm
01:58 PM 94.5°F34.7°C 67.1°F19.5°C 41% 0.7 mph S1.1 kmh S 5.4 mph8.7 kmh 29.82 in1009.8 mb 0.00 in0.0 mm 0.00 in0.0 mm 0.00 in0.0 mm
02:03 PM 96.3°F35.7°C 68.0°F20.0°C 40% 0.7 mph SW1.1 kmh SW 3.1 mph5.0 kmh 29.82 in1009.8 mb 0.00 in0.0 mm 0.00 in0.0 mm 0.00 in0.0 mm
02:08 PM 95.5°F35.3°C 67.3°F19.6°C 40% 3.8 mph W6.1 kmh W 6.9 mph11.1 kmh 29.82 in1009.8 mb 0.00 in0.0 mm 0.00 in0.0 mm 0.00 in0.0 mm
02:13 PM 94.6°F34.8°C 67.3°F19.6°C 41% 3.1 mph S5.0 kmh S 6.0 mph9.7 kmh 29.81 in1009.5 mb 0.00 in0.0 mm 0.00 in0.0 mm 0.00 in0.0 mm
02:19 PM 94.8°F34.9°C 68.2°F20.1°C 42% 4.5 mph 7.2 kmh 6.0 mph9.7 kmh 29.81 in1009.5 mb 0.00 in0.0 mm 0.00 in0.0 mm 0.00 in0.0 mm
02:24 PM 93.6°F34.2°C 66.4°F19.1°C 41% 3.8 mph S6.1 kmh S 6.9 mph11.1 kmh 29.81 in1009.5 mb 0.00 in0.0 mm 0.00 in0.0 mm 0.00 in0.0 mm
02:29 PM 94.1°F34.5°C 66.7°F19.3°C 41% 0.7 mph SW1.1 kmh SW 5.4 mph8.7 kmh 29.82 in1009.8 mb 0.00 in0.0 mm 0.00 in0.0 mm 0.00 in0.0 mm
02:34 PM 94.8°F34.9°C 67.5°F19.7°C 41% 3.8 mph W6.1 kmh W 5.4 mph8.7 kmh 29.82 in1009.8 mb 0.00 in0.0 mm 0.00 in0.0 mm 0.00 in0.0 mm
02:39 PM 93.4°F34.1°C 66.9°F19.4°C 42% 2.2 mph SW3.5 kmh SW 6.9 mph11.1 kmh 29.81 in1009.5 mb 0.00 in0.0 mm 0.00 in0.0 mm 0.00 in0.0 mm
02:44 PM 94.1°F34.5°C 66.7°F19.3°C 41% 2.2 mph W3.5 kmh W 6.0 mph9.7 kmh 29.81 in1009.5 mb 0.00 in0.0 mm 0.00 in0.0 mm 0.00 in0.0 mm
02:50 PM 94.6°F34.8°C 67.3°F19.6°C 41% 1.6 mph NW2.6 kmh NW 6.9 mph11.1 kmh 29.81 in1009.5 mb 0.00 in0.0 mm 0.00 in0.0 mm 0.00 in0.0 mm
02:55 PM 96.1°F35.6°C 67.8°F19.9°C 40% 1.6 mph SE2.6 kmh SE 3.8 mph6.1 kmh 29.81 in1009.5 mb 0.00 in0.0 mm 0.00 in0.0 mm 0.00 in0.0 mm
03:00 PM 95.0°F35.0°C 66.9°F19.4°C 40% 5.4 mph SW8.7 kmh SW 7.6 mph12.2 kmh 29.81 in1009.5 mb 0.00 in0.0 mm 0.00 in0.0 mm 0.00 in0.0 mm
03:05 PM 94.5°F34.7°C 67.1°F19.5°C 41% 2.2 mph SW3.5 kmh SW 8.3 mph13.4 kmh 29.81 in1009.5 mb 0.00 in0.0 mm 0.00 in0.0 mm 0.00 in0.0 mm
03:10 PM 94.6°F34.8°C 67.3°F19.6°C 41% 6.9 mph W11.1 kmh W 8.3 mph13.4 kmh 29.81 in1009.5 mb 0.00 in0.0 mm 0.00 in0.0 mm 0.00 in0.0 mm
03:15 PM 93.2°F34.0°C 66.7°F19.3°C 42% 4.5 mph W7.2 kmh W 8.3 mph13.4 kmh 29.81 in1009.5 mb 0.00 in0.0 mm 0.00 in0.0 mm 0.00 in0.0 mm
03:21 PM 94.3°F34.6°C 67.6°F19.8°C 42% 3.1 mph S5.0 kmh S 6.0 mph9.7 kmh 29.81 in1009.5 mb 0.00 in0.0 mm 0.00 in0.0 mm 0.00 in0.0 mm
03:26 PM 96.4°F35.8°C 68.2°F20.1°C 40% 2.2 mph SW3.5 kmh SW 6.0 mph9.7 kmh 29.81 in1009.5 mb 0.00 in0.0 mm 0.00 in0.0 mm 0.00 in0.0 mm
03:31 PM 96.3°F35.7°C 68.0°F20.0°C 40% 3.8 mph S6.1 kmh S 6.9 mph11.1 kmh 29.80 in1009.1 mb 0.00 in0.0 mm 0.00 in0.0 mm 0.00 in0.0 mm
03:36 PM 94.8°F34.9°C 66.7°F19.3°C 40% 4.5 mph S7.2 kmh S 6.9 mph11.1 kmh 29.80 in1009.1 mb 0.00 in0.0 mm 0.00 in0.0 mm 0.00 in0.0 mm
03:41 PM 94.8°F34.9°C 67.5°F19.7°C 41% 4.5 mph W7.2 kmh W 7.6 mph12.2 kmh 29.80 in1009.1 mb 0.00 in0.0 mm 0.00 in0.0 mm 0.00 in0.0 mm
03:46 PM 94.3°F34.6°C 66.9°F19.4°C 41% 5.4 mph WSW8.7 kmh WSW 9.2 mph14.8 kmh 29.80 in1009.1 mb 0.00 in0.0 mm 0.00 in0.0 mm 0.00 in0.0 mm
03:52 PM 94.1°F34.5°C 66.7°F19.3°C 41% 3.1 mph W5.0 kmh W 9.2 mph14.8 kmh 29.80 in1009.1 mb 0.00 in0.0 mm 0.00 in0.0 mm 0.00 in0.0 mm
03:57 PM 94.5°F34.7°C 67.1°F19.5°C 41% 1.6 mph W2.6 kmh W 6.9 mph11.1 kmh 29.80 in1009.1 mb 0.00 in0.0 mm 0.00 in0.0 mm 0.00 in0.0 mm
04:02 PM 94.3°F34.6°C 66.2°F19.0°C 40% 5.4 mph SW8.7 kmh SW 8.3 mph13.4 kmh 29.80 in1009.1 mb 0.00 in0.0 mm 0.00 in0.0 mm 0.00 in0.0 mm
04:07 PM 93.9°F34.4°C 65.8°F18.8°C 40% 5.4 mph SW8.7 kmh SW 8.3 mph13.4 kmh 29.80 in1009.1 mb 0.00 in0.0 mm 0.00 in0.0 mm 0.00 in0.0 mm
04:12 PM 93.6°F34.2°C 65.7°F18.7°C 40% 4.5 mph S7.2 kmh S 8.3 mph13.4 kmh 29.79 in1008.8 mb 0.00 in0.0 mm 0.00 in0.0 mm 0.00 in0.0 mm
04:17 PM 93.4°F34.1°C 66.2°F19.0°C 41% 4.5 mph SW7.2 kmh SW 6.0 mph9.7 kmh 29.79 in1008.8 mb 0.00 in0.0 mm 0.00 in0.0 mm 0.00 in0.0 mm
04:23 PM 92.7°F33.7°C 66.9°F19.4°C 43% 2.2 mph NW3.5 kmh NW 6.0 mph9.7 kmh 29.79 in1008.8 mb 0.00 in0.0 mm 0.00 in0.0 mm 0.00 in0.0 mm
04:28 PM 93.2°F34.0°C 66.0°F18.9°C 41% 4.5 mph SSW7.2 kmh SSW 6.9 mph11.1 kmh 29.79 in1008.8 mb 0.00 in0.0 mm 0.00 in0.0 mm 0.00 in0.0 mm
04:33 PM 91.9°F33.3°C 64.9°F18.3°C 41% 3.8 mph W6.1 kmh W 6.0 mph9.7 kmh 29.79 in1008.8 mb 0.00 in0.0 mm 0.00 in0.0 mm 0.00 in0.0 mm
04:38 PM 91.4°F33.0°C 65.1°F18.4°C 42% 4.5 mph SW7.2 kmh SW 5.4 mph8.7 kmh 29.79 in1008.8 mb 0.00 in0.0 mm 0.00 in0.0 mm 0.00 in0.0 mm
04:43 PM 91.4°F33.0°C 65.8°F18.8°C 43% 1.6 mph WSW2.6 kmh WSW 6.0 mph9.7 kmh 29.79 in1008.8 mb 0.00 in0.0 mm 0.00 in0.0 mm 0.00 in0.0 mm
04:48 PM 93.0°F33.9°C 66.6°F19.2°C 42% 3.1 mph SW5.0 kmh SW 6.0 mph9.7 kmh 29.79 in1008.8 mb 0.00 in0.0 mm 0.00 in0.0 mm 0.00 in0.0 mm
04:54 PM 93.2°F34.0°C 66.7°F19.3°C 42% 3.1 mph SW5.0 kmh SW 4.5 mph7.2 kmh 29.78 in1008.5 mb 0.00 in0.0 mm 0.00 in0.0 mm 0.00 in0.0 mm
04:59 PM 92.8°F33.8°C 66.4°F19.1°C 42% 4.5 mph W7.2 kmh W 6.9 mph11.1 kmh 29.78 in1008.5 mb 0.00 in0.0 mm 0.00 in0.0 mm 0.00 in0.0 mm
05:04 PM 92.8°F33.8°C 66.4°F19.1°C 42% 3.8 mph W6.1 kmh W 5.4 mph8.7 kmh 29.78 in1008.5 mb 0.00 in0.0 mm 0.00 in0.0 mm 0.00 in0.0 mm
05:09 PM 92.5°F33.6°C 66.0°F18.9°C 42% 3.1 mph SW5.0 kmh SW 5.4 mph8.7 kmh 29.78 in1008.5 mb 0.00 in0.0 mm 0.00 in0.0 mm 0.00 in0.0 mm
05:14 PM 92.7°F33.7°C 66.2°F19.0°C 42% 1.6 mph W2.6 kmh W 4.5 mph7.2 kmh 29.78 in1008.5 mb 0.00 in0.0 mm 0.00 in0.0 mm 0.00 in0.0 mm
05:19 PM 91.8°F33.2°C 65.5°F18.6°C 42% 3.8 mph W6.1 kmh W 6.0 mph9.7 kmh 29.78 in1008.5 mb 0.00 in0.0 mm 0.00 in0.0 mm 0.00 in0.0 mm
05:25 PM 91.4°F33.0°C 65.1°F18.4°C 42% 3.1 mph W5.0 kmh W 5.4 mph8.7 kmh 29.78 in1008.5 mb 0.00 in0.0 mm 0.00 in0.0 mm 0.00 in0.0 mm
05:30 PM 90.5°F32.5°C 65.7°F18.7°C 44% 3.8 mph W6.1 kmh W 5.4 mph8.7 kmh 29.78 in1008.5 mb 0.00 in0.0 mm 0.00 in0.0 mm 0.00 in0.0 mm
05:35 PM 90.0°F32.2°C 65.8°F18.8°C 45% 3.8 mph W6.1 kmh W 5.4 mph8.7 kmh 29.78 in1008.5 mb 0.00 in0.0 mm 0.00 in0.0 mm 0.00 in0.0 mm
05:40 PM 90.0°F32.2°C 66.4°F19.1°C 46% 4.5 mph W7.2 kmh W 6.0 mph9.7 kmh 29.78 in1008.5 mb 0.00 in0.0 mm 0.00 in0.0 mm 0.00 in0.0 mm
05:45 PM 90.0°F32.2°C 66.4°F19.1°C 46% 1.6 mph W2.6 kmh W 6.0 mph9.7 kmh 29.77 in1008.1 mb 0.00 in0.0 mm 0.00 in0.0 mm 0.00 in0.0 mm
05:50 PM 90.1°F32.3°C 66.6°F19.2°C 46% 3.1 mph NW5.0 kmh NW 5.4 mph8.7 kmh 29.77 in1008.1 mb 0.00 in0.0 mm 0.00 in0.0 mm 0.00 in0.0 mm
05:56 PM 90.0°F32.2°C 67.1°F19.5°C 47% 3.8 mph W6.1 kmh W 5.4 mph8.7 kmh 29.78 in1008.5 mb 0.00 in0.0 mm 0.00 in0.0 mm 0.00 in0.0 mm
06:01 PM 90.0°F32.2°C 67.1°F19.5°C 47% 3.1 mph NW5.0 kmh NW 5.4 mph8.7 kmh 29.78 in1008.5 mb 0.00 in0.0 mm 0.00 in0.0 mm 0.00 in0.0 mm
06:06 PM 89.1°F31.7°C 66.7°F19.3°C 48% 3.1 mph NW5.0 kmh NW 6.9 mph11.1 kmh 29.77 in1008.1 mb 0.00 in0.0 mm 0.00 in0.0 mm 0.00 in0.0 mm
06:11 PM 88.5°F31.4°C 67.5°F19.7°C 50% 5.4 mph NW8.7 kmh NW 9.2 mph14.8 kmh 29.77 in1008.1 mb 0.00 in0.0 mm 0.00 in0.0 mm 0.00 in0.0 mm
06:16 PM 87.8°F31.0°C 68.0°F20.0°C 52% 2.2 mph NW3.5 kmh NW 6.9 mph11.1 kmh 29.78 in1008.5 mb 0.00 in0.0 mm 0.00 in0.0 mm 0.00 in0.0 mm
06:22 PM 87.4°F30.8°C 68.7°F20.4°C 54% 5.4 mph NW8.7 kmh NW 6.9 mph11.1 kmh 29.77 in1008.1 mb 0.00 in0.0 mm 0.00 in0.0 mm 0.00 in0.0 mm
06:27 PM 87.3°F30.7°C 68.5°F20.3°C 54% 2.2 mph W3.5 kmh W 5.4 mph8.7 kmh 29.77 in1008.1 mb 0.00 in0.0 mm 0.00 in0.0 mm 0.00 in0.0 mm
06:32 PM 87.3°F30.7°C 69.1°F20.6°C 55% 3.1 mph NE5.0 kmh NE 8.3 mph13.4 kmh 29.77 in1008.1 mb 0.00 in0.0 mm 0.00 in0.0 mm 0.00 in0.0 mm
06:37 PM 87.1°F30.6°C 68.9°F20.5°C 55% 6.9 mph NW11.1 kmh NW 10.7 mph17.2 kmh 29.77 in1008.1 mb 0.00 in0.0 mm 0.00 in0.0 mm 0.00 in0.0 mm
06:42 PM 86.9°F30.5°C 68.7°F20.4°C 55% 4.5 mph 7.2 kmh 10.7 mph17.2 kmh 29.77 in1008.1 mb 0.00 in0.0 mm 0.00 in0.0 mm 0.00 in0.0 mm
06:47 PM 86.9°F30.5°C 68.7°F20.4°C 55% 6.9 mph NNW11.1 kmh NNW 11.4 mph18.3 kmh 29.77 in1008.1 mb 0.00 in0.0 mm 0.00 in0.0 mm 0.00 in0.0 mm
06:53 PM 86.4°F30.2°C 69.3°F20.7°C 57% 6.0 mph NW9.7 kmh NW 11.4 mph18.3 kmh 29.77 in1008.1 mb 0.00 in0.0 mm 0.00 in0.0 mm 0.00 in0.0 mm
06:58 PM 85.6°F29.8°C 69.6°F20.9°C 59% 4.5 mph WNW7.2 kmh WNW 10.7 mph17.2 kmh 29.77 in1008.1 mb 0.00 in0.0 mm 0.00 in0.0 mm 0.00 in0.0 mm
07:03 PM 85.3°F29.6°C 69.8°F21.0°C 60% 6.9 mph NW11.1 kmh NW 9.8 mph15.8 kmh 29.77 in1008.1 mb 0.00 in0.0 mm 0.00 in0.0 mm 0.00 in0.0 mm
07:08 PM 84.7°F29.3°C 69.3°F20.7°C 60% 4.5 mph NW7.2 kmh NW 9.8 mph15.8 kmh 29.78 in1008.5 mb 0.00 in0.0 mm 0.00 in0.0 mm 0.00 in0.0 mm
07:13 PM 84.7°F29.3°C 69.3°F20.7°C 60% 3.1 mph NW5.0 kmh NW 6.9 mph11.1 kmh 29.78 in1008.5 mb 0.00 in0.0 mm 0.00 in0.0 mm 0.00 in0.0 mm
07:18 PM 84.6°F29.2°C 69.1°F20.6°C 60% 5.4 mph W8.7 kmh W 7.6 mph12.2 kmh 29.78 in1008.5 mb 0.00 in0.0 mm 0.00 in0.0 mm 0.00 in0.0 mm
07:24 PM 84.9°F29.4°C 69.4°F20.8°C 60% 4.5 mph NW7.2 kmh NW 9.2 mph14.8 kmh 29.77 in1008.1 mb 0.00 in0.0 mm 0.00 in0.0 mm 0.00 in0.0 mm
07:29 PM 84.9°F29.4°C 69.4°F20.8°C 60% 3.8 mph NW6.1 kmh NW 6.0 mph9.7 kmh 29.77 in1008.1 mb 0.00 in0.0 mm 0.00 in0.0 mm 0.00 in0.0 mm
07:34 PM 84.4°F29.1°C 68.9°F20.5°C 60% 6.9 mph NW11.1 kmh NW 9.2 mph14.8 kmh 29.76 in1007.8 mb 0.00 in0.0 mm 0.00 in0.0 mm 0.00 in0.0 mm
07:39 PM 83.7°F28.7°C 69.3°F20.7°C 62% 4.5 mph W7.2 kmh W 10.7 mph17.2 kmh 29.76 in1007.8 mb 0.00 in0.0 mm 0.00 in0.0 mm 0.00 in0.0 mm
07:44 PM 83.3°F28.5°C 68.9°F20.5°C 62% 2.2 mph NW3.5 kmh NW 6.0 mph9.7 kmh 29.77 in1008.1 mb 0.00 in0.0 mm 0.00 in0.0 mm 0.00 in0.0 mm
07:49 PM 83.1°F28.4°C 69.3°F20.7°C 63% 4.5 mph NW7.2 kmh NW 6.9 mph11.1 kmh 29.78 in1008.5 mb 0.00 in0.0 mm 0.00 in0.0 mm 0.00 in0.0 mm
07:55 PM 83.1°F28.4°C 69.3°F20.7°C 63% 6.0 mph NW9.7 kmh NW 8.3 mph13.4 kmh 29.78 in1008.5 mb 0.00 in0.0 mm 0.00 in0.0 mm 0.00 in0.0 mm
08:00 PM 82.9°F28.3°C 69.1°F20.6°C 63% 1.6 mph W2.6 kmh W 8.3 mph13.4 kmh 29.78 in1008.5 mb 0.00 in0.0 mm 0.00 in0.0 mm 0.00 in0.0 mm
08:05 PM 82.6°F28.1°C 68.7°F20.4°C 63% 1.6 mph 2.6 kmh 6.9 mph11.1 kmh 29.79 in1008.8 mb 0.00 in0.0 mm 0.00 in0.0 mm 0.00 in0.0 mm
08:10 PM 82.4°F28.0°C 68.5°F20.3°C 63% 1.6 mph 2.6 kmh 3.8 mph6.1 kmh 29.79 in1008.8 mb 0.00 in0.0 mm 0.00 in0.0 mm 0.00 in0.0 mm
08:15 PM 82.2°F27.9°C 68.9°F20.5°C 64% 2.2 mph NE3.5 kmh NE 4.5 mph7.2 kmh 29.79 in1008.8 mb 0.00 in0.0 mm 0.00 in0.0 mm 0.00 in0.0 mm
08:20 PM 82.0°F27.8°C 69.1°F20.6°C 65% 0.7 mph NE1.1 kmh NE 5.4 mph8.7 kmh 29.79 in1008.8 mb 0.00 in0.0 mm 0.00 in0.0 mm 0.00 in0.0 mm
08:26 PM 81.7°F27.6°C 68.7°F20.4°C 65% 1.6 mph SE2.6 kmh SE 4.5 mph7.2 kmh 29.79 in1008.8 mb 0.00 in0.0 mm 0.00 in0.0 mm 0.00 in0.0 mm
08:31 PM 81.5°F27.5°C 68.5°F20.3°C 65% 1.6 mph NE2.6 kmh NE 3.1 mph5.0 kmh 29.79 in1008.8 mb 0.00 in0.0 mm 0.00 in0.0 mm 0.00 in0.0 mm
08:36 PM 81.3°F27.4°C 68.4°F20.2°C 65% 2.2 mph 3.5 kmh 3.8 mph6.1 kmh 29.79 in1008.8 mb 0.00 in0.0 mm 0.00 in0.0 mm 0.00 in0.0 mm
08:41 PM 81.0°F27.2°C 68.0°F20.0°C 65% 1.6 mph NNW2.6 kmh NNW 3.1 mph5.0 kmh 29.79 in1008.8 mb 0.00 in0.0 mm 0.00 in0.0 mm 0.00 in0.0 mm
08:46 PM 80.8°F27.1°C 68.0°F20.0°C 65% 2.2 mph 3.5 kmh 3.1 mph5.0 kmh 29.79 in1008.8 mb 0.00 in0.0 mm 0.00 in0.0 mm 0.00 in0.0 mm
08:51 PM 80.6°F27.0°C 68.2°F20.1°C 66% 1.6 mph NW2.6 kmh NW 3.1 mph5.0 kmh 29.79 in1008.8 mb 0.00 in0.0 mm 0.00 in0.0 mm 0.00 in0.0 mm
08:57 PM 80.6°F27.0°C 68.2°F20.1°C 66% 1.6 mph NW2.6 kmh NW 3.1 mph5.0 kmh 29.79 in1008.8 mb 0.00 in0.0 mm 0.00 in0.0 mm 0.00 in0.0 mm
09:02 PM 80.4°F26.9°C 68.9°F20.5°C 68% 2.2 mph NW3.5 kmh NW 3.8 mph6.1 kmh 29.80 in1009.1 mb 0.00 in0.0 mm 0.00 in0.0 mm 0.00 in0.0 mm
09:07 PM 80.4°F26.9°C 68.9°F20.5°C 68% 2.2 mph NW3.5 kmh NW 3.8 mph6.1 kmh 29.80 in1009.1 mb 0.00 in0.0 mm 0.00 in0.0 mm 0.00 in0.0 mm
09:12 PM 80.2°F26.8°C 68.7°F20.4°C 68% 2.2 mph NW3.5 kmh NW 5.4 mph8.7 kmh 29.80 in1009.1 mb 0.00 in0.0 mm 0.00 in0.0 mm 0.00 in0.0 mm
09:17 PM 80.1°F26.7°C 68.2°F20.1°C 67% 2.2 mph 3.5 kmh 5.4 mph8.7 kmh 29.80 in1009.1 mb 0.00 in0.0 mm 0.00 in0.0 mm 0.00 in0.0 mm
09:22 PM 79.9°F26.6°C 68.0°F20.0°C 67% 3.1 mph NW5.0 kmh NW 3.8 mph6.1 kmh 29.80 in1009.1 mb 0.00 in0.0 mm 0.00 in0.0 mm 0.00 in0.0 mm
09:28 PM 79.7°F26.5°C 67.8°F19.9°C 67% 2.2 mph 3.5 kmh 3.1 mph5.0 kmh 29.81 in1009.5 mb 0.00 in0.0 mm 0.00 in0.0 mm 0.00 in0.0 mm
09:33 PM 79.5°F26.4°C 67.6°F19.8°C 67% 1.6 mph NW2.6 kmh NW 3.8 mph6.1 kmh 29.81 in1009.5 mb 0.00 in0.0 mm 0.00 in0.0 mm 0.00 in0.0 mm
09:38 PM 79.3°F26.3°C 67.5°F19.7°C 67% 0.7 mph 1.1 kmh 3.1 mph5.0 kmh 29.81 in1009.5 mb 0.00 in0.0 mm 0.00 in0.0 mm 0.00 in0.0 mm
09:43 PM 79.0°F26.1°C 67.5°F19.7°C 68% 1.6 mph 2.6 kmh 3.1 mph5.0 kmh 29.82 in1009.8 mb 0.00 in0.0 mm 0.00 in0.0 mm 0.00 in0.0 mm
09:48 PM 78.6°F25.9°C 67.6°F19.8°C 69% 0.7 mph 1.1 kmh 3.1 mph5.0 kmh 29.82 in1009.8 mb 0.00 in0.0 mm 0.00 in0.0 mm 0.00 in0.0 mm
09:53 PM 78.4°F25.8°C 67.5°F19.7°C 69% 0.7 mph NNW1.1 kmh NNW 2.2 mph3.5 kmh 29.82 in1009.8 mb 0.00 in0.0 mm 0.00 in0.0 mm 0.00 in0.0 mm
09:59 PM 77.9°F25.5°C 67.3°F19.6°C 70% 0.7 mph NW1.1 kmh NW 3.1 mph5.0 kmh 29.82 in1009.8 mb 0.00 in0.0 mm 0.00 in0.0 mm 0.00 in0.0 mm
10:04 PM 77.9°F25.5°C 66.9°F19.4°C 69% 1.6 mph NW2.6 kmh NW 2.2 mph3.5 kmh 29.82 in1009.8 mb 0.00 in0.0 mm 0.00 in0.0 mm 0.00 in0.0 mm
10:09 PM 77.9°F25.5°C 66.9°F19.4°C 69% 3.1 mph NW5.0 kmh NW 3.8 mph6.1 kmh 29.83 in1010.2 mb 0.00 in0.0 mm 0.00 in0.0 mm 0.00 in0.0 mm
10:14 PM 77.9°F25.5°C 66.9°F19.4°C 69% 3.1 mph NW5.0 kmh NW 4.5 mph7.2 kmh 29.83 in1010.2 mb 0.00 in0.0 mm 0.00 in0.0 mm 0.00 in0.0 mm
10:19 PM 77.9°F25.5°C 66.6°F19.2°C 68% 2.2 mph NW3.5 kmh NW 4.5 mph7.2 kmh 29.83 in1010.2 mb 0.00 in0.0 mm 0.00 in0.0 mm 0.00 in0.0 mm
10:24 PM 77.7°F25.4°C 66.4°F19.1°C 68% 3.1 mph 5.0 kmh 3.8 mph6.1 kmh 29.83 in1010.2 mb 0.00 in0.0 mm 0.00 in0.0 mm 0.00 in0.0 mm
10:30 PM 77.7°F25.4°C 65.8°F18.8°C 67% 0.7 mph NW1.1 kmh NW 3.8 mph6.1 kmh 29.84 in1010.5 mb 0.00 in0.0 mm 0.00 in0.0 mm 0.00 in0.0 mm
10:35 PM 77.7°F25.4°C 65.8°F18.8°C 67% 0.7 mph W1.1 kmh W 3.1 mph5.0 kmh 29.84 in1010.5 mb 0.00 in0.0 mm 0.00 in0.0 mm 0.00 in0.0 mm
10:40 PM 77.4°F25.2°C 65.5°F18.6°C 67% 1.6 mph NW2.6 kmh NW 3.1 mph5.0 kmh 29.84 in1010.5 mb 0.00 in0.0 mm 0.00 in0.0 mm 0.00 in0.0 mm
10:45 PM 77.4°F25.2°C 65.5°F18.6°C 67% 1.6 mph WNW2.6 kmh WNW 2.2 mph3.5 kmh 29.84 in1010.5 mb 0.00 in0.0 mm 0.00 in0.0 mm 0.00 in0.0 mm
10:50 PM 77.2°F25.1°C 65.3°F18.5°C 67% 2.2 mph W3.5 kmh W 3.8 mph6.1 kmh 29.84 in1010.5 mb 0.00 in0.0 mm 0.00 in0.0 mm 0.00 in0.0 mm
10:55 PM 77.2°F25.1°C 65.3°F18.5°C 67% 1.6 mph W2.6 kmh W 3.1 mph5.0 kmh 29.85 in1010.8 mb 0.00 in0.0 mm 0.00 in0.0 mm 0.00 in0.0 mm
11:01 PM 77.2°F25.1°C 64.9°F18.3°C 66% 2.2 mph NW3.5 kmh NW 4.5 mph7.2 kmh 29.84 in1010.5 mb 0.00 in0.0 mm 0.00 in0.0 mm 0.00 in0.0 mm
11:06 PM 77.0°F25.0°C 64.8°F18.2°C 66% 2.2 mph NW3.5 kmh NW 3.1 mph5.0 kmh 29.85 in1010.8 mb 0.00 in0.0 mm 0.00 in0.0 mm 0.00 in0.0 mm
11:11 PM 77.0°F25.0°C 64.8°F18.2°C 66% 1.6 mph W2.6 kmh W 3.1 mph5.0 kmh 29.84 in1010.5 mb 0.00 in0.0 mm 0.00 in0.0 mm 0.00 in0.0 mm
11:16 PM 76.6°F24.8°C 64.9°F18.3°C 67% 0.7 mph SE1.1 kmh SE 3.8 mph6.1 kmh 29.85 in1010.8 mb 0.00 in0.0 mm 0.00 in0.0 mm 0.00 in0.0 mm
11:21 PM 76.6°F24.8°C 64.9°F18.3°C 67% 2.2 mph NW3.5 kmh NW 3.8 mph6.1 kmh 29.85 in1010.8 mb 0.00 in0.0 mm 0.00 in0.0 mm 0.00 in0.0 mm
11:26 PM 76.5°F24.7°C 64.8°F18.2°C 67% 1.6 mph W2.6 kmh W 3.8 mph6.1 kmh 29.85 in1010.8 mb 0.00 in0.0 mm 0.00 in0.0 mm 0.00 in0.0 mm
11:37 PM 76.1°F24.5°C 64.8°F18.2°C 68% 1.6 mph 2.6 kmh 3.8 mph6.1 kmh 29.85 in1010.8 mb 0.00 in0.0 mm 0.00 in0.0 mm 0.00 in0.0 mm
11:42 PM 75.9°F24.4°C 64.6°F18.1°C 68% 1.6 mph NW2.6 kmh NW 3.1 mph5.0 kmh 29.86 in1011.2 mb 0.00 in0.0 mm 0.00 in0.0 mm 0.00 in0.0 mm
11:47 PM 75.7°F24.3°C 64.8°F18.2°C 69% 1.6 mph NW2.6 kmh NW 3.1 mph5.0 kmh 29.86 in1011.2 mb 0.00 in0.0 mm 0.00 in0.0 mm 0.00 in0.0 mm
11:52 PM 75.6°F24.2°C 64.8°F18.2°C 69% 1.6 mph NW2.6 kmh NW 3.1 mph5.0 kmh 29.86 in1011.2 mb 0.00 in0.0 mm 0.00 in0.0 mm 0.00 in0.0 mm
11:58 PM 75.6°F24.2°C 64.8°F18.2°C 69% 0.7 mph E1.1 kmh E 3.1 mph5.0 kmh 29.86 in1011.2 mb 0.00 in0.0 mm 0.00 in0.0 mm 0.00 in0.0 mm